Hlavní strana
METAR-TAF:

METAR-TAF

Letiště :

Murray, Kentucky, Spojené státy americké

zeměpisná šířka: 36-39-52N, zeměpisná délka: 088-22-22W, výška: 176 m

Aktuální stav počasí

Zpráva byla vytvořena před 17 minutami, v 10:35 UTC
Severozápadní vítr 9 kt s nárazy do 26 kt
Teplota 0°C
Vlhkost vzduchu 74%
Tlak 1019 hPa
Viditelnost: 16.1 km
Oblačno až skoro zataženo ve výšce 9000 ft
Zataženo ve výšce 11000 ft

METAR: KCEY 101035Z AUTO 32009G26KT 10SM BKN090 OVC110 00/M04 A3010 RMK AO1

Čas: 04:52 (10:52 UTC)


TAF: chybějící

Stav a předpovědi počasí z více než 4 000 letišť (zprávy METAR a TAF).

Červené a žluté tečky na mapě představují dostupné meteorologické stanice.

Když kurzor umístíte na tečku, zobrazí se název stanice.

Pak kliknutím zobrazíte stav a předpověď počasí.

Chcete-li změnit mapu, kliknutím na zelené tlačítko se znaménkem +mapu přiblížíte, kliknutím na zelené tlačítko se znaménkem – mapu oddálíte a kliknutím na zelené šipky přejdete na sousední mapy.


METAR-TAF: